Time;durP1;ratioP1;P1;durP2;ratioP2;P2;SDS_P1;SDS_P2;PMS_P1;PMS_P2;Temp;Humidity;BMP_temperature;BMP_pressure;BME280_temperature;BME280_humidity;BME280_pressure;Samples;Min_cycle;Max_cycle;Signal;HPM_P1;HPM_P2
2021/04/06 00:00:54;;;;;;;6.63;3.80;;;;;;;;;;5096521;28;20158;-49
2021/04/06 00:03:22;;;;;;;8.50;3.28;;;;;;;;;;5113200;28;20047;-49
2021/04/06 00:05:51;;;;;;;5.03;2.90;;;;;;;;;;5115249;28;20378;-51
2021/04/06 00:08:17;;;;;;;5.50;3.13;;;;;;;;;;5115004;28;20020;-50
2021/04/06 00:10:45;;;;;;;4.22;3.00;;;;;;;;;;5115507;28;20482;-50
2021/04/06 00:13:11;;;;;;;5.35;3.22;;;6.80;99.90;;;;;;5113653;28;20034;-50
2021/04/06 00:15:39;;;;;;;5.03;2.38;;;6.80;99.90;;;;;;5114989;28;20076;-49
2021/04/06 00:18:06;;;;;;;9.40;3.60;;;;;;;;;;5100588;28;20024;-50
2021/04/06 00:20:34;;;;;;;8.07;3.13;;;;;;;;;;5094928;28;20433;-51
2021/04/06 00:23:01;;;;;;;6.63;3.67;;;6.80;99.90;;;;;;5075237;28;20036;-50
2021/04/06 00:25:31;;;;;;;4.85;2.75;;;6.70;99.90;;;;;;5094699;28;20024;-50
2021/04/06 00:27:57;;;;;;;6.13;3.40;;;6.80;99.90;;;;;;5094738;28;20026;-50
2021/04/06 00:30:34;;;;;;;5.32;3.50;;;6.80;99.90;;;;;;5094272;28;20485;-49
2021/04/06 00:33:06;;;;;;;8.00;3.42;;;6.90;99.90;;;;;;5094407;28;20060;-50
2021/04/06 00:35:35;;;;;;;6.07;3.58;;;;;;;;;;5075673;28;20039;-51
2021/04/06 00:38:01;;;;;;;6.88;3.80;;;;;;;;;;5071401;28;20411;-50
2021/04/06 00:40:31;;;;;;;5.43;3.10;;;7.20;99.90;;;;;;5071905;28;20041;-50
2021/04/06 00:43:03;;;;;;;4.38;3.45;;;7.20;99.90;;;;;;5071630;28;20044;-50
2021/04/06 00:45:30;;;;;;;6.28;3.65;;;7.20;99.90;;;;;;5071078;28;20032;-50
2021/04/06 00:48:03;;;;;;;4.85;3.10;;;7.10;99.90;;;;;;5071687;28;20036;-50
2021/04/06 00:50:32;;;;;;;;;;;6.90;99.90;;;;;;5070330;28;20221;-50
2021/04/06 00:52:58;;;;;;;3.90;2.65;;;6.90;99.90;;;;;;5071453;28;19931;-50
2021/04/06 00:55:36;;;;;;;5.65;3.20;;;7.00;99.90;;;;;;5021930;28;20083;-50
2021/04/06 00:58:11;;;;;;;4.72;3.08;;;6.90;99.90;;;;;;5071288;28;20092;-51
2021/04/06 01:00:37;;;;;;;4.90;2.50;;;6.90;99.90;;;;;;5071437;28;20041;-49
2021/04/06 01:03:07;;;;;;;4.78;3.05;;;6.80;99.90;;;;;;5071346;28;20040;-51
2021/04/06 01:05:34;;;;;;;4.35;2.58;;;;;;;;;;5022528;28;20464;-51
2021/04/06 01:08:03;;;;;;;3.55;2.55;;;6.50;99.90;;;;;;5073250;28;20035;-51
2021/04/06 01:10:31;;;;;;;3.55;2.28;;;6.50;99.90;;;;;;5057921;28;20067;-51
2021/04/06 01:13:01;;;;;;;4.68;2.90;;;;;;;;;;5074242;28;20494;-51
2021/04/06 01:15:27;;;;;;;5.03;2.58;;;6.60;99.90;;;;;;5091679;28;20044;-49
2021/04/06 01:17:53;;;;;;;5.22;3.25;;;6.70;99.90;;;;;;5057450;28;20036;-50
2021/04/06 01:20:20;;;;;;;4.38;2.72;;;6.70;99.90;;;;;;5091364;28;20359;-50
2021/04/06 01:22:49;;;;;;;3.47;2.67;;;6.80;99.90;;;;;;5093527;28;20039;-51
2021/04/06 01:25:23;;;;;;;4.40;2.60;;;6.80;99.90;;;;;;5091792;28;20039;-49
2021/04/06 01:27:55;;;;;;;4.47;3.17;;;6.60;99.90;;;;;;5093408;28;20028;-51
2021/04/06 01:30:22;;;;;;;5.85;2.75;;;6.60;99.90;;;;;;5093816;28;20024;-49
2021/04/06 01:32:50;;;;;;;5.20;2.53;;;6.50;99.90;;;;;;5091077;28;20044;-49
2021/04/06 01:35:16;;;;;;;4.18;2.67;;;6.50;99.90;;;;;;5093477;28;20040;-50
2021/04/06 01:37:43;;;;;;;6.00;3.15;;;6.60;99.90;;;;;;5091575;28;20029;-49
2021/04/06 01:40:10;;;;;;;5.43;3.17;;;6.80;99.90;;;;;;5093686;28;20070;-50
2021/04/06 01:42:37;;;;;;;4.40;2.70;;;6.80;99.90;;;;;;5090873;28;20036;-50
2021/04/06 01:45:07;;;;;;;5.15;2.55;;;6.70;99.90;;;;;;5093472;28;20032;-50
2021/04/06 01:47:33;;;;;;;3.75;2.67;;;6.70;99.90;;;;;;5093613;28;20032;-50
2021/04/06 01:50:00;;;;;;;4.75;3.30;;;6.60;99.90;;;;;;5091144;28;20429;-50
2021/04/06 01:52:26;;;;;;;6.30;2.30;;;6.60;99.90;;;;;;5113549;28;20470;-51
2021/04/06 01:54:56;;;;;;;4.72;2.55;;;6.70;99.90;;;;;;5102603;28;20066;-51
2021/04/06 01:57:29;;;;;;;3.78;2.25;;;6.80;99.90;;;;;;5097369;28;20032;-50
2021/04/06 01:59:59;;;;;;;4.18;2.22;;;7.00;99.90;;;;;;5111900;28;20455;-50
2021/04/06 02:02:29;;;;;;;4.45;2.78;;;7.00;99.90;;;;;;5117944;28;20035;-50
2021/04/06 02:05:00;;;;;;;4.18;2.35;;;6.90;99.90;;;;;;5117511;28;20044;-50
2021/04/06 02:07:33;;;;;;;4.25;2.50;;;6.90;99.90;;;;;;5117793;28;20101;-50
2021/04/06 02:09:59;;;;;;;2.90;2.03;;;6.80;99.90;;;;;;5117973;28;20036;-51
2021/04/06 02:12:25;;;;;;;3.88;2.50;;;6.70;99.90;;;;;;5115525;28;20390;-51
2021/04/06 02:14:57;;;;;;;4.97;2.78;;;7.10;99.90;;;;;;5117858;28;20103;-50
2021/04/06 02:17:23;;;;;;;3.40;2.43;;;7.10;99.90;;;;;;5117673;28;20474;-50
2021/04/06 02:19:48;;;;;;;3.95;2.38;;;7.10;99.90;;;;;;5064597;28;20040;-49
2021/04/06 02:22:19;;;;;;;3.67;2.03;;;7.00;99.90;;;;;;5117660;28;20484;-50
2021/04/06 02:24:48;;;;;;;4.47;2.80;;;7.00;99.90;;;;;;5117333;28;20119;-51
2021/04/06 02:27:15;;;;;;;3.20;2.33;;;7.10;99.90;;;;;;5117336;28;20110;-49
2021/04/06 02:29:52;;;;;;;3.25;1.98;;;6.90;99.90;;;;;;5117598;28;20031;-48
2021/04/06 02:32:20;;;;;;;2.95;2.05;;;6.90;99.90;;;;;;5117206;28;20056;-50
2021/04/06 02:34:51;;;;;;;4.20;2.50;;;7.00;99.90;;;;;;5117130;27;20063;-50
2021/04/06 02:37:27;;;;;;;3.75;2.38;;;6.90;99.90;;;;;;5117269;28;20084;-49
2021/04/06 02:39:55;;;;;;;3.60;2.08;;;6.90;99.90;;;;;;5117566;28;20030;-50
2021/04/06 02:42:42;;;;;;;3.88;2.28;;;7.00;99.90;;;;;;5116770;28;20030;-49
2021/04/06 02:45:23;;;;;;;3.80;2.00;;;6.90;99.90;;;;;;5117175;28;20540;-49
2021/04/06 02:47:50;;;;;;;4.78;2.15;;;6.90;99.90;;;;;;5117158;28;20032;-51
2021/04/06 02:50:20;;;;;;;4.22;2.60;;;6.80;99.90;;;;;;5112935;28;20035;-50
2021/04/06 02:52:46;;;;;;;5.07;2.20;;;;;;;;;;5100378;28;20018;-50
2021/04/06 02:55:13;;;;;;;6.90;2.78;;;6.50;99.90;;;;;;5096521;28;20035;-50
2021/04/06 02:57:50;;;;;;;5.82;2.80;;;6.70;99.90;;;;;;5096150;28;20501;-49
2021/04/06 03:00:28;;;;;;;5.38;3.72;;;6.70;99.90;;;;;;5114286;28;20407;-50
2021/04/06 03:02:58;;;;;;;3.85;2.28;;;6.70;99.90;;;;;;5116377;28;20336;-50
2021/04/06 03:05:32;;;;;;;4.38;2.60;;;6.70;99.90;;;;;;5077025;28;20059;-50
2021/04/06 03:07:59;;;;;;;2.92;2.10;;;6.60;99.90;;;;;;5059609;28;20051;-49
2021/04/06 03:10:26;;;;;;;5.53;2.20;;;6.50;99.90;;;;;;5060594;28;20379;-50
2021/04/06 03:12:52;;;;;;;2.40;1.73;;;;;;;;;;5095552;28;20024;-50
2021/04/06 03:15:28;;;;;;;2.85;1.73;;;;;;;;;;5096143;28;20039;-50
2021/04/06 03:17:55;;;;;;;1.20;1.00;;;6.30;99.90;;;;;;5096177;28;20032;-50
2021/04/06 03:20:24;;;;;;;3.38;1.77;;;6.20;99.90;;;;;;5053085;28;20037;-50
2021/04/06 03:22:52;;;;;;;3.78;2.08;;;6.30;99.90;;;;;;5053175;28;20106;-49
2021/04/06 03:25:19;;;;;;;4.90;2.90;;;6.30;99.90;;;;;;5085758;28;20042;-49
2021/04/06 03:27:50;;;;;;;4.38;1.90;;;6.30;99.90;;;;;;5093217;28;20040;-49
2021/04/06 03:30:31;;;;;;;2.20;1.50;;;6.40;99.90;;;;;;5093380;28;20100;-49
2021/04/06 03:33:11;;;;;;;4.00;2.33;;;6.60;99.90;;;;;;5092956;28;20040;-49
2021/04/06 03:35:39;;;;;;;2.33;1.77;;;7.10;99.90;;;;;;5093141;28;20361;-49
2021/04/06 03:38:09;;;;;;;4.85;2.33;;;7.40;99.90;;;;;;5076181;28;20036;-51
2021/04/06 03:40:38;;;;;;;6.82;3.53;;;7.30;99.90;;;;;;5093167;28;20109;-51
2021/04/06 03:43:14;;;;;;;4.45;2.65;;;;;;;;;;5092697;28;20077;-50
2021/04/06 03:45:56;;;;;;;7.85;3.13;;;;;;;;;;5093132;28;20032;-50
2021/04/06 03:48:24;;;;;;;6.10;2.67;;;7.40;99.90;;;;;;5058936;28;20035;-50
2021/04/06 03:50:51;;;;;;;4.88;2.72;;;7.40;99.90;;;;;;5079392;28;20032;-49
2021/04/06 03:53:20;;;;;;;3.90;2.25;;;7.50;99.90;;;;;;5116040;27;20036;-49
2021/04/06 03:56:02;;;;;;;5.43;2.67;;;;;;;;;;5107830;28;20463;-51
2021/04/06 03:58:30;;;;;;;6.38;2.47;;;7.70;99.90;;;;;;5095179;28;20035;-49
2021/04/06 04:00:56;;;;;;;5.70;2.97;;;7.80;99.90;;;;;;5106775;28;20039;-50
2021/04/06 04:03:22;;;;;;;39.13;18.45;;;7.60;99.90;;;;;;5095744;28;20047;-50
2021/04/06 04:05:51;;;;;;;45.92;21.50;;;;;;;;;;5098844;28;20573;-49
2021/04/06 04:08:17;;;;;;;26.65;13.77;;;7.90;99.90;;;;;;5115533;28;20403;-49
2021/04/06 04:10:43;;;;;;;30.48;14.70;;;7.90;99.90;;;;;;5114877;28;20110;-49
2021/04/06 04:13:09;;;;;;;27.05;13.95;;;8.10;99.90;;;;;;5079102;28;20066;-50
2021/04/06 04:15:35;;;;;;;19.98;8.48;;;8.10;99.90;;;;;;5114146;28;20030;-49
2021/04/06 04:18:01;;;;;;;16.60;8.30;;;8.20;99.90;;;;;;5075367;28;20044;-50
2021/04/06 04:20:27;;;;;;;14.90;6.90;;;;;;;;;;5093483;28;20422;-49
2021/04/06 04:22:53;;;;;;;10.23;6.93;;;;;;;;;;5094535;28;20064;-51
2021/04/06 04:25:20;;;;;;;17.23;8.80;;;;;;;;;;5094584;28;20036;-49
2021/04/06 04:27:46;;;;;;;20.45;9.13;;;;;;;;;;5094622;28;20020;-49
2021/04/06 04:30:13;;;;;;;22.88;11.52;;;;;;;;;;5094643;28;20027;-51
2021/04/06 04:32:40;;;;;;;32.65;16.60;;;;;;;;;;5080534;28;20048;-51
2021/04/06 04:35:06;;;;;;;37.05;16.42;;;;;;;;;;5094672;28;20107;-50
2021/04/06 04:37:33;;;;;;;47.40;20.30;;;;;;;;;;5097313;28;20073;-51
2021/04/06 04:39:58;;;;;;;39.30;15.68;;;9.20;99.90;;;;;;5114471;28;20028;-51
2021/04/06 04:42:24;;;;;;;32.55;15.65;;;7.70;99.90;;;;;;5108776;28;20022;-49
2021/04/06 04:44:50;;;;;;;28.42;14.27;;;7.60;99.90;;;;;;5114498;28;20066;-49
2021/04/06 04:47:15;;;;;;;35.55;15.60;;;7.40;99.90;;;;;;5106916;28;20032;-50
2021/04/06 04:49:41;;;;;;;27.05;13.35;;;7.50;99.90;;;;;;5078380;28;20435;-50
2021/04/06 04:52:07;;;;;;;25.42;13.20;;;7.50;99.90;;;;;;5079922;28;20043;-49
2021/04/06 04:54:33;;;;;;;24.45;11.25;;;7.50;99.90;;;;;;5105822;28;20112;-50
2021/04/06 04:56:59;;;;;;;24.42;11.88;;;7.50;99.90;;;;;;5114114;28;20097;-49
2021/04/06 04:59:26;;;;;;;24.27;12.75;;;7.50;99.90;;;;;;5114243;28;20027;-51
2021/04/06 05:01:52;;;;;;;21.17;11.27;;;7.60;99.90;;;;;;5114412;28;20027;-49
2021/04/06 05:04:17;;;;;;;27.48;13.32;;;7.50;99.90;;;;;;5104701;28;20092;-49
2021/04/06 05:06:43;;;;;;;22.92;11.50;;;7.40;99.90;;;;;;5096656;28;20424;-53
2021/04/06 05:09:09;;;;;;;30.25;15.50;;;7.40;99.90;;;;;;5093882;28;20024;-51
2021/04/06 05:11:36;;;;;;;15.10;9.68;;;7.40;99.90;;;;;;5100240;28;20028;-50
2021/04/06 05:14:02;;;;;;;12.07;6.35;;;7.40;99.90;;;;;;5108699;28;20032;-51
2021/04/06 05:16:29;;;;;;;9.80;6.45;;;;;;;;;;5113578;28;20032;-49
2021/04/06 05:18:54;;;;;;;11.80;6.85;;;8.00;99.90;;;;;;5113814;28;20020;-51
2021/04/06 05:21:20;;;;;;;10.40;6.70;;;;;;;;;;5114144;28;20028;-51
2021/04/06 05:23:46;;;;;;;10.40;6.55;;;8.30;99.90;;;;;;5114177;28;20047;-50
2021/04/06 05:26:12;;;;;;;12.35;6.75;;;8.50;99.90;;;;;;5108403;28;20044;-49
2021/04/06 05:28:38;;;;;;;13.10;6.95;;;8.50;99.90;;;;;;5111153;28;20039;-51
2021/04/06 05:31:04;;;;;;;14.43;6.93;;;8.60;99.90;;;;;;5105026;28;20119;-51
2021/04/06 05:33:29;;;;;;;11.90;7.38;;;8.70;99.90;;;;;;5093686;28;20055;-49
2021/04/06 05:35:55;;;;;;;13.77;7.40;;;8.60;99.90;;;;;;5099790;28;20152;-51
2021/04/06 05:38:21;;;;;;;12.13;6.40;;;8.40;99.90;;;;;;5041633;28;20032;-50
2021/04/06 05:40:47;;;;;;;11.57;6.32;;;;;;;;;;5040436;28;20038;-51
2021/04/06 05:43:17;;;;;;;13.00;7.35;;;8.20;99.90;;;;;;5111153;28;20111;-50
2021/04/06 05:45:48;;;;;;;10.52;5.85;;;8.20;99.90;;;;;;5111653;28;20378;-51
2021/04/06 05:48:15;;;;;;;8.55;4.72;;;8.30;99.90;;;;;;5111366;28;20439;-51
2021/04/06 05:50:51;;;;;;;11.60;5.55;;;8.40;99.90;;;;;;5112108;28;20035;-49
2021/04/06 05:53:18;;;;;;;11.77;6.07;;;8.50;99.90;;;;;;5112012;28;20016;-50
2021/04/06 05:55:44;;;;;;;12.43;7.03;;;8.60;99.90;;;;;;5111685;28;20032;-51
2021/04/06 05:58:10;;;;;;;11.18;6.55;;;8.70;99.90;;;;;;5059174;28;20038;-50
2021/04/06 06:00:36;;;;;;;2.75;1.52;;;8.70;99.90;;;;;;5113827;28;20381;-51
2021/04/06 06:03:02;;;;;;;3.83;2.75;;;8.60;99.90;;;;;;5113277;28;20031;-49
2021/04/06 06:05:28;;;;;;;4.03;2.05;;;;;;;;;;5094964;28;20067;-51
2021/04/06 06:07:54;;;;;;;1.38;0.90;;;;;;;;;;5113774;28;20516;-50
2021/04/06 06:10:31;;;;;;;3.20;1.75;;;8.00;99.90;;;;;;5113399;28;20038;-49
2021/04/06 06:13:14;;;;;;;1.08;1.02;;;;;;;;;;5111827;28;20023;-49
2021/04/06 06:15:40;;;;;;;1.05;0.90;;;7.80;99.90;;;;;;5113827;28;20111;-50
2021/04/06 06:18:06;;;;;;;1.80;1.02;;;7.60;99.90;;;;;;5113374;28;20039;-50
2021/04/06 06:20:33;;;;;;;0.32;0.32;;;;;;;;;;5113792;28;20031;-51
2021/04/06 06:23:21;;;;;;;3.72;0.90;;;;;;;;;;5113916;28;20359;-49
2021/04/06 06:26:02;;;;;;;7.00;1.33;;;7.40;99.90;;;;;;5111385;28;20077;-49
2021/04/06 06:28:28;;;;;;;4.80;1.23;;;7.60;99.90;;;;;;5094642;28;20034;-50
2021/04/06 06:30:54;;;;;;;2.95;1.67;;;7.30;99.90;;;;;;5113533;28;20111;-51
2021/04/06 06:33:27;;;;;;;1.73;0.90;;;7.40;99.90;;;;;;5113266;28;20127;-50
2021/04/06 06:35:54;;;;;;;0.57;0.57;;;;;;;;;;5113711;28;20030;-49
2021/04/06 06:38:24;;;;;;;3.28;1.23;;;7.10;99.90;;;;;;5113170;28;20068;-51
2021/04/06 06:40:52;;;;;;;1.60;1.20;;;;;;;;;;5113650;28;20088;-51
2021/04/06 06:43:21;;;;;;;1.20;1.00;;;7.00;99.90;;;;;;5115756;28;20025;-50
2021/04/06 06:45:49;;;;;;;1.20;0.77;;;7.10;99.90;;;;;;5116980;28;20027;-51
2021/04/06 06:48:32;;;;;;;6.10;2.33;;;;;;;;;;5117232;28;20015;-50
2021/04/06 06:51:03;;;;;;;0.70;0.60;;;6.90;99.90;;;;;;5115237;28;20063;-51
2021/04/06 06:53:33;;;;;;;0.77;0.68;;;6.90;99.90;;;;;;5097639;28;20058;-50
2021/04/06 06:55:59;;;;;;;4.07;1.20;;;6.90;99.90;;;;;;5117120;28;20494;-50
2021/04/06 06:58:33;;;;;;;0.90;0.80;;;6.90;99.90;;;;;;5116929;28;20035;-49
2021/04/06 07:00:59;;;;;;;3.33;1.45;;;6.80;99.90;;;;;;5097517;28;20040;-51
2021/04/06 07:03:25;;;;;;;10.00;3.45;;;6.80;99.90;;;;;;5116757;28;20525;-49
2021/04/06 07:05:51;;;;;;;1.63;1.00;;;7.00;99.90;;;;;;5116950;28;20019;-49
2021/04/06 07:08:33;;;;;;;1.25;0.98;;;6.80;99.90;;;;;;5097213;28;20100;-49
2021/04/06 07:11:01;;;;;;;0.95;0.73;;;6.80;99.90;;;;;;5116868;28;20063;-51
2021/04/06 07:13:32;;;;;;;0.77;0.77;;;6.80;99.90;;;;;;5114689;28;20023;-50
2021/04/06 07:15:59;;;;;;;0.30;0.30;;;6.80;99.90;;;;;;5116608;28;20467;-50
2021/04/06 07:18:26;;;;;;;1.35;1.00;;;6.80;99.90;;;;;;5097484;28;20032;-50
2021/04/06 07:20:52;;;;;;;0.70;0.70;;;7.00;99.90;;;;;;5116711;27;20425;-49
2021/04/06 07:23:24;;;;;;;0.80;0.52;;;6.90;99.90;;;;;;5116057;28;20114;-51
2021/04/06 07:25:50;;;;;;;0.50;0.50;;;6.80;99.90;;;;;;5116735;28;20035;-51
2021/04/06 07:28:16;;;;;;;1.33;1.02;;;6.80;99.90;;;;;;5116406;28;20475;-51
2021/04/06 07:30:44;;;;;;;0.52;0.50;;;6.80;99.90;;;;;;5097163;28;20077;-51
2021/04/06 07:33:10;;;;;;;5.10;1.65;;;6.90;99.90;;;;;;5116183;28;20493;-52
2021/04/06 07:35:36;;;;;;;5.93;1.85;;;6.80;99.90;;;;;;5116237;28;20569;-50
2021/04/06 07:38:02;;;;;;;10.60;2.97;;;6.80;99.90;;;;;;5115940;28;20486;-49
2021/04/06 07:40:32;;;;;;;1.60;1.50;;;6.80;99.90;;;;;;5116200;28;20032;-49
2021/04/06 07:42:58;;;;;;;1.10;1.00;;;6.80;99.90;;;;;;5096932;28;20040;-51
2021/04/06 07:45:24;;;;;;;6.30;1.50;;;6.60;99.90;;;;;;5108742;28;20024;-49
2021/04/06 07:47:51;;;;;;;1.95;1.05;;;6.80;99.90;;;;;;5107352;28;20111;-49
2021/04/06 07:50:45;;;;;;;8.57;2.38;;;6.90;99.90;;;;;;5095529;28;20032;-51
2021/04/06 07:53:21;;;;;;;1.70;0.98;;;7.00;99.90;;;;;;5082712;28;20028;-49
2021/04/06 07:55:47;;;;;;;2.05;1.40;;;7.00;99.90;;;;;;5098586;28;20465;-50
2021/04/06 07:58:52;;;;;;;0.85;0.82;;;7.30;99.90;;;;;;5105060;28;20038;-49
2021/04/06 08:01:30;;;;;;;1.95;1.23;;;7.40;99.90;;;;;;5075630;28;20070;-50
2021/04/06 08:04:00;;;;;;;3.55;1.88;;;7.60;99.90;;;;;;5092758;28;20449;-50
2021/04/06 08:06:28;;;;;;;3.72;1.45;;;7.70;99.90;;;;;;5092828;28;20036;-50
2021/04/06 08:08:54;;;;;;;1.05;0.73;;;7.60;99.90;;;;;;5092551;28;20049;-50
2021/04/06 08:11:33;;;;;;;2.13;1.23;;;7.60;99.90;;;;;;5075767;28;20032;-50
2021/04/06 08:14:00;;;;;;;1.30;0.80;;;7.60;99.90;;;;;;5092907;28;20039;-50
2021/04/06 08:16:25;;;;;;;1.67;0.95;;;7.50;99.90;;;;;;5077240;28;20475;-52
2021/04/06 08:18:55;;;;;;;4.18;1.40;;;7.50;99.90;;;;;;5055505;28;20098;-51
2021/04/06 08:21:25;;;;;;;7.43;1.38;;;7.50;99.90;;;;;;5077361;28;20050;-50
2021/04/06 08:23:52;;;;;;;2.58;1.23;;;7.50;99.90;;;;;;5073016;28;20102;-51
2021/04/06 08:26:34;;;;;;;1.35;0.90;;;7.50;99.90;;;;;;5069286;28;20048;-50
2021/04/06 08:29:27;;;;;;;1.13;0.80;;;7.30;99.90;;;;;;5072489;28;20036;-50
2021/04/06 08:32:13;;;;;;;;;;;7.50;99.90;;;;;;5077321;28;20160;-49
2021/04/06 08:34:54;;;;;;;2.63;1.00;;;7.70;99.90;;;;;;5081091;28;19913;-51
2021/04/06 08:37:34;;;;;;;2.00;1.17;;;7.70;99.90;;;;;;5022232;28;20033;-48
2021/04/06 08:40:01;;;;;;;0.73;0.70;;;7.70;99.90;;;;;;5112590;28;20031;-51
2021/04/06 08:42:26;;;;;;;1.77;1.13;;;7.50;99.90;;;;;;5112569;28;20032;-51
2021/04/06 08:44:58;;;;;;;3.10;1.90;;;7.20;99.90;;;;;;5112128;28;20067;-51
2021/04/06 08:47:43;;;;;;;1.95;1.30;;;7.30;99.90;;;;;;5112481;28;20039;-50
2021/04/06 08:50:16;;;;;;;2.58;1.40;;;7.20;99.90;;;;;;5112532;28;20055;-49
2021/04/06 08:52:42;;;;;;;1.58;0.93;;;7.20;99.90;;;;;;5112032;28;20034;-49
2021/04/06 08:55:15;;;;;;;1.08;0.98;;;6.90;99.90;;;;;;5101086;28;20032;-51
2021/04/06 08:57:42;;;;;;;1.10;0.57;;;7.00;99.90;;;;;;5094138;28;20459;-50
2021/04/06 09:00:15;;;;;;;2.65;0.90;;;6.80;99.90;;;;;;5093817;28;20509;-48
2021/04/06 09:02:41;;;;;;;1.40;0.77;;;;;;;;;;5091731;28;20093;-49
2021/04/06 09:05:08;;;;;;;4.25;1.65;;;;;;;;;;5094654;28;20433;-51
2021/04/06 09:07:36;;;;;;;2.20;1.30;;;;;;;;;;5077566;28;20127;-50
2021/04/06 09:10:05;;;;;;;1.45;0.95;;;;;;;;;;5114469;28;20035;-49
2021/04/06 09:12:33;;;;;;;0.77;0.77;;;;;;;;;;5114238;28;20051;-51
2021/04/06 09:14:59;;;;;;;1.00;0.43;;;;;;;;;;5109443;28;20034;-48
2021/04/06 09:17:33;;;;;;;1.98;1.27;;;6.70;99.90;;;;;;5093780;28;20479;-50
2021/04/06 09:20:00;;;;;;;3.80;1.80;;;6.70;99.90;;;;;;5093817;28;20024;-48
2021/04/06 09:22:27;;;;;;;4.80;1.80;;;6.90;99.90;;;;;;5093507;28;20043;-48
2021/04/06 09:24:53;;;;;;;1.27;0.50;;;6.90;99.90;;;;;;5093824;28;20119;-51
2021/04/06 09:27:19;;;;;;;1.63;1.08;;;6.50;99.90;;;;;;5093747;28;20024;-48
2021/04/06 09:29:47;;;;;;;1.02;0.85;;;6.60;99.90;;;;;;5092535;28;20028;-48
2021/04/06 09:32:19;;;;;;;3.03;0.90;;;6.90;99.90;;;;;;5093016;28;20052;-48
2021/04/06 09:34:47;;;;;;;1.20;0.88;;;6.70;99.90;;;;;;5074191;28;20063;-50
2021/04/06 09:37:19;;;;;;;4.40;1.85;;;6.50;99.90;;;;;;5073405;28;20199;-48
2021/04/06 09:39:51;;;;;;;0.45;0.45;;;6.50;99.90;;;;;;5092958;28;20035;-49
2021/04/06 09:42:18;;;;;;;2.65;1.27;;;6.50;99.90;;;;;;5093100;28;20032;-50
2021/04/06 09:44:45;;;;;;;4.60;2.35;;;6.60;99.90;;;;;;5092478;28;20085;-48
2021/04/06 09:47:21;;;;;;;9.10;2.35;;;6.70;99.90;;;;;;5113518;28;20382;-49
2021/04/06 09:49:52;;;;;;;6.30;2.75;;;6.80;99.90;;;;;;5113110;28;20035;-51
2021/04/06 09:52:22;;;;;;;14.23;5.18;;;6.70;99.90;;;;;;5112511;28;20039;-49
2021/04/06 09:54:53;;;;;;;0.88;0.80;;;6.90;99.90;;;;;;5111325;28;20110;-51
2021/04/06 09:57:22;;;;;;;1.50;1.08;;;6.80;99.90;;;;;;5113059;28;20481;-49
2021/04/06 09:59:54;;;;;;;9.63;4.03;;;6.80;99.90;;;;;;5112728;28;20023;-50
2021/04/06 10:02:23;;;;;;;9.02;4.28;;;6.90;99.90;;;;;;5112890;28;20521;-52
2021/04/06 10:04:51;;;;;;;3.45;1.30;;;6.80;99.90;;;;;;5113112;28;20046;-48
2021/04/06 10:07:25;;;;;;;8.27;3.25;;;6.60;99.90;;;;;;5090153;28;20119;-51
2021/04/06 10:09:55;;;;;;;5.55;2.05;;;6.70;99.90;;;;;;5073841;28;20036;-50
2021/04/06 10:12:24;;;;;;;17.80;4.28;;;6.60;99.90;;;;;;5090842;28;20057;-51
2021/04/06 10:14:50;;;;;;;1.23;0.77;;;6.70;99.90;;;;;;5089897;28;20028;-50
2021/04/06 10:17:22;;;;;;;20.77;5.40;;;6.40;99.90;;;;;;5093071;28;20143;-48
2021/04/06 10:20:05;;;;;;;14.90;5.47;;;6.50;99.90;;;;;;5094189;28;20479;-48
2021/04/06 10:22:46;;;;;;;8.52;3.95;;;6.50;99.90;;;;;;5093644;28;20265;-49
2021/04/06 10:25:18;;;;;;;1.13;0.80;;;6.40;99.90;;;;;;5094282;28;20114;-49
2021/04/06 10:27:46;;;;;;;2.72;1.05;;;;;;;;;;5093747;28;20601;-49
2021/04/06 10:30:18;;;;;;;4.32;2.67;;;;;;;;;;5079370;28;20047;-50
2021/04/06 10:32:47;;;;;;;3.08;1.85;;;6.00;99.90;;;;;;5078631;28;20055;-50
2021/04/06 10:35:25;;;;;;;0.70;0.70;;;6.10;99.90;;;;;;5073682;28;20039;-50
2021/04/06 10:37:58;;;;;;;1.10;0.98;;;6.20;99.90;;;;;;5081279;28;20067;-49
2021/04/06 10:40:42;;;;;;;4.75;2.20;;;6.20;99.90;;;;;;5096669;28;20024;-50
2021/04/06 10:43:09;;;;;;;8.70;3.53;;;6.10;99.90;;;;;;5102740;28;20160;-49
2021/04/06 10:45:39;;;;;;;0.77;0.68;;;6.10;99.90;;;;;;5096898;28;20049;-50
2021/04/06 10:48:21;;;;;;;1.30;0.73;;;6.00;99.90;;;;;;5074077;28;20051;-49
2021/04/06 10:50:54;;;;;;;1.20;0.95;;;6.10;99.90;;;;;;5023142;28;20120;-49
2021/04/06 10:53:34;;;;;;;3.00;1.60;;;;;;;;;;5063132;28;20123;-48
2021/04/06 10:56:03;;;;;;;1.00;0.65;;;;;;;;;;5087021;28;20083;-49
2021/04/06 10:58:31;;;;;;;1.55;0.90;;;;;;;;;;5077668;28;20048;-48
2021/04/06 11:01:05;;;;;;;1.92;1.08;;;;;;;;;;5073840;28;20064;-50
2021/04/06 11:03:37;;;;;;;2.38;1.48;;;;;;;;;;5088767;28;20052;-52
2021/04/06 11:06:10;;;;;;;3.58;1.80;;;;;;;;;;5056262;28;20043;-52
2021/04/06 11:08:39;;;;;;;5.53;1.90;;;;;;;;;;5073412;28;20033;-50
2021/04/06 11:11:19;;;;;;;4.65;1.25;;;6.30;99.90;;;;;;5052716;28;20068;-50
2021/04/06 11:13:46;;;;;;;3.60;1.73;;;6.10;99.90;;;;;;5052483;28;20440;-50
2021/04/06 11:16:12;;;;;;;24.13;8.88;;;6.30;99.90;;;;;;5052880;28;20033;-50
2021/04/06 11:18:39;;;;;;;7.35;3.75;;;6.20;99.90;;;;;;5059198;28;20036;-50
2021/04/06 11:21:05;;;;;;;3.13;1.55;;;6.20;99.90;;;;;;5076959;28;20152;-51
2021/04/06 11:23:31;;;;;;;4.53;2.08;;;6.10;99.90;;;;;;5094059;28;20040;-50
2021/04/06 11:25:57;;;;;;;6.30;2.30;;;6.10;99.90;;;;;;5076035;28;20120;-48
2021/04/06 11:28:23;;;;;;;3.75;1.92;;;6.30;99.90;;;;;;5091842;28;20048;-51
2021/04/06 11:30:48;;;;;;;7.55;2.88;;;6.20;99.90;;;;;;5092906;28;20161;-48
2021/04/06 11:33:14;;;;;;;2.30;1.20;;;6.20;99.90;;;;;;5093398;28;20505;-49
2021/04/06 11:35:40;;;;;;;1.80;1.13;;;5.80;99.90;;;;;;5092364;28;20024;-49
2021/04/06 11:38:06;;;;;;;0.43;0.43;;;5.80;99.90;;;;;;5092681;28;20399;-50
2021/04/06 11:40:32;;;;;;;6.15;3.13;;;;;;;;;;5093016;28;20028;-48
2021/04/06 11:42:58;;;;;;;2.00;1.45;;;;;;;;;;5094427;28;20086;-51
2021/04/06 11:45:24;;;;;;;2.05;1.50;;;;;;;;;;5095275;28;20470;-48
2021/04/06 11:47:51;;;;;;;0.60;0.60;;;;;;;;;;5094809;28;20024;-51
2021/04/06 11:50:18;;;;;;;2.97;1.38;;;;;;;;;;5094527;28;20043;-49
2021/04/06 11:52:44;;;;;;;2.45;2.22;;;;;;;;;;5094680;28;20112;-50
2021/04/06 11:55:10;;;;;;;3.22;1.30;;;;;;;;;;5094761;28;20024;-49
2021/04/06 11:57:36;;;;;;;2.55;1.30;;;5.10;99.90;;;;;;5091970;28;20050;-49
2021/04/06 12:00:04;;;;;;;3.92;1.70;;;5.10;99.90;;;;;;5094121;28;20127;-51
2021/04/06 12:02:30;;;;;;;2.35;1.17;;;5.40;99.90;;;;;;5083256;28;20044;-50
2021/04/06 12:04:55;;;;;;;1.27;1.05;;;5.50;99.90;;;;;;5089647;28;20067;-50
2021/04/06 12:07:21;;;;;;;1.10;1.00;;;5.40;99.90;;;;;;5042701;28;20040;-51
2021/04/06 12:09:47;;;;;;;2.80;1.50;;;5.30;99.90;;;;;;5108816;28;20353;-48
2021/04/06 12:12:13;;;;;;;2.13;1.15;;;5.40;99.90;;;;;;5115252;28;20027;-48
2021/04/06 12:14:38;;;;;;;1.38;1.02;;;5.50;99.90;;;;;;5115400;28;20024;-48
2021/04/06 12:17:05;;;;;;;2.55;1.50;;;5.50;99.90;;;;;;5114671;28;20043;-49
2021/04/06 12:19:31;;;;;;;2.13;1.58;;;5.50;99.90;;;;;;5115798;28;20403;-46
2021/04/06 12:21:57;;;;;;;0.93;0.80;;;5.60;99.90;;;;;;5115250;28;20107;-49
2021/04/06 12:24:23;;;;;;;2.00;1.17;;;5.30;99.90;;;;;;5096028;28;20043;-51
2021/04/06 12:26:52;;;;;;;1.27;1.10;;;5.60;99.90;;;;;;5095780;28;20046;-48
2021/04/06 12:29:18;;;;;;;1.08;0.98;;;5.50;99.90;;;;;;5115406;27;20035;-48
2021/04/06 12:31:43;;;;;;;1.58;1.10;;;5.20;99.90;;;;;;5114914;28;20123;-51
2021/04/06 12:34:09;;;;;;;0.65;0.60;;;5.10;99.90;;;;;;5115338;28;20024;-48
2021/04/06 12:36:35;;;;;;;2.55;1.23;;;5.20;99.90;;;;;;5096160;28;20410;-50
2021/04/06 12:39:00;;;;;;;2.75;1.35;;;5.10;99.90;;;;;;5112651;28;20092;-50
2021/04/06 12:41:26;;;;;;;2.72;1.75;;;5.20;99.90;;;;;;5114120;28;20073;-47
2021/04/06 12:43:52;;;;;;;0.98;0.80;;;5.40;99.90;;;;;;5095710;28;20115;-49
2021/04/06 12:46:18;;;;;;;2.53;1.20;;;5.10;99.90;;;;;;5113008;28;20038;-49
2021/04/06 12:48:43;;;;;;;2.40;1.10;;;5.00;99.90;;;;;;5095489;28;20055;-47
2021/04/06 12:51:09;;;;;;;1.90;1.20;;;5.00;99.90;;;;;;5095761;28;20038;-50
2021/04/06 12:53:35;;;;;;;2.17;1.42;;;;;;;;;;5112761;28;20348;-50
2021/04/06 12:56:02;;;;;;;4.40;2.17;;;5.70;99.90;;;;;;5114338;28;20080;-47
2021/04/06 12:58:28;;;;;;;3.00;2.25;;;5.80;99.90;;;;;;5114797;28;20107;-50
2021/04/06 13:00:54;;;;;;;3.85;1.92;;;;;;;;;;5114563;28;20459;-49
2021/04/06 13:03:20;;;;;;;10.70;4.70;;;5.50;99.90;;;;;;5095208;28;20048;-50
2021/04/06 13:05:46;;;;;;;15.63;7.32;;;5.50;99.90;;;;;;5078403;28;20122;-50
2021/04/06 13:08:11;;;;;;;4.88;3.03;;;5.50;99.90;;;;;;5257917;22;20087;-48
2021/04/06 13:10:39;;;;;;;6.00;3.28;;;5.50;99.90;;;;;;5036407;28;20033;-50
2021/04/06 13:13:06;;;;;;;8.05;3.53;;;5.50;99.90;;;;;;5073061;28;20052;-47
2021/04/06 13:15:32;;;;;;;15.63;6.22;;;5.50;99.90;;;;;;5073665;28;20055;-50
2021/04/06 13:17:58;;;;;;;8.85;3.15;;;5.70;99.90;;;;;;5075168;28;20069;-48
2021/04/06 13:20:24;;;;;;;7.30;2.95;;;5.60;99.90;;;;;;5015199;28;20029;-47
2021/04/06 13:22:50;;;;;;;2.70;2.17;;;5.50;99.90;;;;;;5065876;28;20129;-49